Oak Shores, California
Current Conditions -  °F | °C
As of 7:53 PM on Saturday 22 Nov 2014 (Local Time) from KPRB Reporting Station
Clear Clear  
Wind Chill: 58°   Ceiling: Unl
Heat Index: 58°   Visibility: 10mi
Dew Point: 54°   Wind: 17mph
Humidity: 87%   Direction: 320°NW
Pressure: 30.12"   Gusts: NA
Location:  35.8301°N, 120.993°W
Report Text: KPRB 230353Z AUTO 32015KT 10SM CLR 14/12 A3012 RMK AO2 SLP200 T01440122 TSNO
Loading
Personal Weather Stations






























Interactive Weather Map New forecast layout! Learn more

10-Day Weather Forecast

Advertisements
Track Severe Weather on mobile